074  
SXUS95 KTFX 141345  
MTTTFX  
 
AREA AWOS OBSERVATIONS  
NATIONAL WEATHER SERVICE GREAT FALLS MT  
745 AM MDT FRI MAY 14 2021  
 
METAR K6S5 141340Z AUTO 00000KT 10SM CLR 07/02 A3012 RMK AO2 HAMILTON  
 
CLICK HERE TO GO TO PREVIOUS BULLETINS.

The Nexlab MT Page Main Text Page